»·PEaware :: N79567 KSBD-KEMT

N79567 :: KSBD-KEMT

FLIGHT INFORMATION

Flight Status: Arrived
Operator: Privately registered:
United States
More flights under this callsign
Pilot: Eric S. (23095)
Aircraft: CESSNA 172 SKYHAWK
(C172)
More flights by this aircraft type
Origin: KSBD San Bernardino Intl
United States
Destination: KEMT El Monte
United States
More flights between these airports :: More routes between these airports
Route: +
File this flight plan on PilotEdge
Remarks:
Altitude:
(Current/Filed)
4,500ft
Speed:
(Current/Filed)
120kts
Departed: 13-Oct-19 03:11 PM
Arrived: 13-Oct-19 03:38 PM
Distance/Time
Traveled:
40nm/0:27
Distance/Time
To Go:
Arrived

Flight Plot

Page will automatically refresh every two minutes.


Map Options




Map Legend


Flown Route
Filed Route
Departure Airport
Arrival Airport
Navaid (VOR, NDB)
Fix

Horizontal Profiles

Position Reports

Time Latitude Longitude Heading Altitude Ground
Speed
13-Oct-19 14:50 34.102166 -117.224730 93 1146ft 0kts
13-Oct-19 14:51 34.102166 -117.224730 93 1146ft 0kts
13-Oct-19 14:52 34.102166 -117.224730 93 1146ft 0kts
13-Oct-19 14:53 34.102166 -117.224730 93 1146ft 0kts
13-Oct-19 14:54 34.102166 -117.224730 93 1146ft 0kts
13-Oct-19 14:55 34.102166 -117.224730 93 1146ft 0kts
13-Oct-19 14:56 34.102166 -117.224730 93 1146ft 0kts
13-Oct-19 14:57 34.102166 -117.224730 93 1146ft 0kts
13-Oct-19 14:58 34.102166 -117.224730 93 1146ft 0kts
13-Oct-19 14:59 34.102166 -117.224730 93 1146ft 0kts
13-Oct-19 15:00 34.102166 -117.224730 93 1146ft 0kts
13-Oct-19 15:01 34.102166 -117.224730 93 1146ft 0kts
13-Oct-19 15:02 34.102166 -117.224730 93 1146ft 0kts
13-Oct-19 15:03 34.102166 -117.224730 93 1146ft 0kts
13-Oct-19 15:04 34.102166 -117.224730 93 1146ft 0kts
13-Oct-19 15:05 34.100720 -117.225216 242 1145ft 13kts
13-Oct-19 15:06 34.100115 -117.224816 67 1146ft 6kts
13-Oct-19 15:07 34.101185 -117.221249 71 1154ft 15kts
13-Oct-19 15:08 34.100811 -117.219729 159 1159ft 0kts
13-Oct-19 15:09 34.100794 -117.219722 159 1159ft 1kts
13-Oct-19 15:10 34.096518 -117.230581 248 1256ft 86kts
13-Oct-19 15:11 34.092317 -117.258861 298 1919ft 87kts
13-Oct-19 15:12 34.110238 -117.281802 287 2513ft 93kts
13-Oct-19 15:13 34.121591 -117.310422 272 3063ft 96kts
13-Oct-19 15:14 34.123636 -117.342244 277 3625ft 92kts
13-Oct-19 15:15 34.126549 -117.373906 272 4126ft 93kts
13-Oct-19 15:16 34.126971 -117.405870 270 4579ft 96kts
13-Oct-19 15:17 34.127280 -117.437528 270 4711ft 107kts
13-Oct-19 15:18 34.123186 -117.470833 231 4709ft 100kts
13-Oct-19 15:19 34.111551 -117.499785 267 4653ft 102kts
13-Oct-19 15:20 34.104926 -117.532237 265 4639ft 98kts
13-Oct-19 15:21 34.103678 -117.564600 268 4640ft 97kts
13-Oct-19 15:22 34.102895 -117.594852 268 4640ft 96kts
13-Oct-19 15:23 34.102097 -117.627505 268 4643ft 102kts
13-Oct-19 15:24 34.101274 -117.664081 268 4641ft 117kts
13-Oct-19 15:25 34.100475 -117.703056 268 4637ft 111kts
13-Oct-19 15:26 34.099806 -117.737876 268 4639ft 102kts
13-Oct-19 15:27 34.099204 -117.771443 268 4639ft 99kts
13-Oct-19 15:28 34.098666 -117.803984 268 4640ft 97kts
13-Oct-19 15:29 34.098182 -117.836055 268 4640ft 96kts
13-Oct-19 15:30 34.097746 -117.868188 268 4640ft 96kts
13-Oct-19 15:31 34.097394 -117.893272 268 4463ft 73kts
13-Oct-19 15:32 34.101089 -117.921852 277 3566ft 100kts
13-Oct-19 15:33 34.102658 -117.954547 273 2611ft 97kts
13-Oct-19 15:34 34.105390 -117.984813 278 1808ft 95kts
13-Oct-19 15:35 34.107514 -118.013539 251 1047ft 77kts
13-Oct-19 15:36 34.093778 -118.030320 205 515ft 64kts
13-Oct-19 15:37 34.085482 -118.034695 154 287ft 3kts
13-Oct-19 15:38 34.085422 -118.034659 153 287ft 0kts
13-Oct-19 15:39 34.084940 -118.034278 154 287ft 0kts
13-Oct-19 15:40 34.084940 -118.034278 154 287ft 0kts

Navigation Log

Ident Type
Flight plan parsing failed, navigation log unavailable